Details From KDXR - Danbury Muni
To KPVC - Provincetown Muni
Flight Number -
Tags Novice Generated
Created
Modified
Stats Distance 152 nm / 281 km
Max Altitude 0 ft / 0 m
Waypoints 5
Social Downloads 2
Likes 0
Share VATSIM

Download

Looking for another format? Having issues loading an existing format? Contact us
Advertisement - Login to hide

Notes

Departing runway 6 KDXR. Arriving runway 5 KPVC. Advanced Generation Settings: Turn accuracy: 5 Smoothed angles: True Runway changes allowed: True Calculation order: Arrival --> Departure --> Intermediates Multipass intermediates: True

Route

KDXR +41.40_-073.39 +41.63_-072.28 +41.00_-070.39 KPVC

ID Type Via Altitude Latitude Longitude Leg Dist Tot Dist Heading (true) Name
O KDXR APT - 0 ft / 0 m 41.37289˚ -73.47565˚ - 0 nm - Danbury
+41.40_-073.39 DME - 0 ft / 0 m 41.39798˚ -73.38518˚ 4 nm 4 nm 70° / 70° -
+41.63_-072.28 DME - 0 ft / 0 m 41.62768˚ -72.27896˚ 51 nm 55 nm 74° / 75° -
+41.00_-070.39 DME - 0 ft / 0 m 41.99567˚ -70.39362˚ 87 nm 143 nm 75° / 76° -
O KPVC APT - 0 ft / 0 m 42.06983˚ -70.22628˚ 8 nm 151 nm 59° / 59° -

Altitude Profile

Advertisement - Login to hide

KDXR

Details ICAO KDXR (DXR)
Name Danbury
Region United States
Timezone America/New_York (UTC-5.0)
Stats Elevation 458 ft / 140 m (AMSL)
Location 41.371685° -73.481981°
Runways 2
Magnetic Variation 13.316° W

METAR

KDXR 150753Z AUTO 00000KT 10SM CLR M11/M16 A3008 RMK AO2 SLP190 T11111156

Decode

TAF

Not found

Departure Runways

ID Width Length Bearing (true) Bearing (mag) Surface Threshold Offset Overrun Length
08 151 ft / 46 m 4,414 ft / 1,345 m 69.68° 83.00° Asphalt 367 ft / 112 m 0 ft / 0 m
17 98 ft / 30 m 3,138 ft / 956 m 153.16° 166.48° Asphalt 223 ft / 68 m 0 ft / 0 m
26 151 ft / 46 m 4,414 ft / 1,345 m 249.69° 263.01° Asphalt 735 ft / 224 m 0 ft / 0 m
35 98 ft / 30 m 3,138 ft / 956 m 333.17° 346.49° Asphalt 230 ft / 70 m 0 ft / 0 m

KPVC

Details ICAO KPVC (PVC)
Name Provincetown Muni
Region United States
Timezone America/New_York (UTC-5.0)
Stats Elevation 8 ft / 2 m (AMSL)
Location 42.072281° -70.220737°
Runways 1
Magnetic Variation 14.905° W

METAR

KPVC 150756Z AUTO 28012G17KT 10SM FEW026 M06/M10 A3005 RMK AO2 SLP175 T10561100 FZRANO

Decode

TAF

Not found

Destination Runways

ID Width Length Bearing (true) Bearing (mag) Surface Threshold Offset Overrun Length
07 100 ft / 30 m 3,495 ft / 1,065 m 59.23° 74.14° Asphalt 0 ft / 0 m 0 ft / 0 m
25 100 ft / 30 m 3,495 ft / 1,065 m 239.23° 254.14° Asphalt 0 ft / 0 m 0 ft / 0 m

Approach Navaids

Runway Type Ident Frequency Range Bearing (true) Bearing (mag) Slope Elevation
07 Localiser IVQO 111.10 MHz 18 nm / 33 km 59.22° 74.13° - 8 ft / 2 m (AMSL)
07 Glidescope IVQO 111.10 MHz 10 nm / 19 km 59.23° 74.14° 3.00° 9 ft / 3 m (AMSL)
07 DME IVQO 111.10 MHz 18 nm / 33 km - - - 8 ft / 2 m (AMSL)